Airfield :
LOGIN :

Register | Disclaimer

   EN    FR    IT 

 










Legend :    VFR   Marginal VFR   IFR   Intensive IFR   Very Intensive IFR
Visi :
Ceiling :
>= 8 km
>= 3000ft
5 to 8 km
1000 to 3000 ft
1500m to 5 km
500 to 1000 ft
800 to 1500m
200 to 500 ft
< 800m
< 200 ft
Symbols :   Thunderstorms  Fog  Heavy snow  Heavy precipitations  Wind > 20 kt
SIGMETs :     Misc.  Thunderstorms  Icing  Turbulence  Mountain Waves  Volcanic Ashes






- Airport Elevation : 286 ft
- IATA code : TRF


ENTO - Sandefjord , Torp

CURRENT METAR :
  • 131150Z 03004KT 9999 2000W VCFG BKN004 02/02 Q0999 TEMPO SHRA TEMPO 4000 SHRA BR BKN012 SCT020CB

EXPIRED METARs :
  • 131120Z 03004KT 9999 4000SW SCT000 SCT013TCU BKN020 02/02 Q0999 TEMPO SHRA BKN012 SCT020CB
  • 131050Z 35005KT 9999 FEW000 SCT010TCU BKN042 02/02 Q0999 NOSIG
  • 131020Z 01003KT 9999 SCT000 SCT009 BKN031 02/02 Q0999 NOSIG
  • 130950Z 35004KT 9999 8000N VCSH FEW000 SCT009 SCT016 02/02 Q0999 TEMPO BKN012 SCT020CB
  • 130920Z 31005KT 280V350 9999 5000N VCSH FEW000 SCT005 BKN009 02/02 Q0999 TEMPO 4000 SHRA BKN012 SCT020CB

TAF TAF ENTO
Valid from the 13 at 12:00 until the 14 at 12:00 UTC


1312/1412 VRB05KT 9999 -SHRA SCT010 BKN020
TEMPO 1312/1318 2500 SHRA BR BKN004 SCT015CB
PROB40 1320/1406 0200 FG VV001
TEMPO 1406/1412 2000 SHRA BR BKN004 SCT015CB



MET'MAP, your aeronautical weather chart ! - Copyright ORBIFLY December 2007 - Disclaimer

ORBIFLY MET'MAP TEAM :

Programming & Development : Alexandra Zaïnal
Concept & Development : Baudouin d'Aumeries
Co-Development & Prog : Marc-Olivier Méhu
Technical & hardware support : Manuel Goepfert

Contact : metmap@orbifly.com




SOURCES & CREDITS :

   NOAA